createdAt,value
2022-10-11T00:03:01.364Z,47.00
2022-10-11T00:08:16.336Z,47.00
2022-10-11T00:13:31.372Z,47.00
2022-10-11T00:18:46.343Z,46.90
2022-10-11T00:24:01.383Z,46.80
2022-10-11T00:29:16.426Z,46.90
2022-10-11T00:34:31.371Z,46.60
2022-10-11T00:39:46.417Z,46.50
2022-10-11T00:45:01.375Z,46.70
2022-10-11T00:50:16.639Z,46.80
2022-10-11T00:55:32.637Z,46.70
2022-10-11T01:00:48.681Z,46.50
2022-10-11T01:06:04.713Z,46.50
2022-10-11T01:11:20.397Z,46.40
2022-10-11T01:16:35.646Z,46.30
2022-10-11T01:21:51.353Z,46.20
2022-10-11T01:27:06.344Z,46.30
2022-10-11T01:32:21.362Z,46.80
2022-10-11T01:37:36.352Z,46.20
2022-10-11T01:42:51.339Z,46.10
2022-10-11T01:48:06.121Z,46.10
2022-10-11T01:53:21.341Z,46.00
2022-10-11T01:58:36.354Z,46.10
2022-10-11T02:03:51.725Z,46.90
2022-10-11T02:09:08.347Z,46.00
2022-10-11T02:14:23.338Z,46.00
2022-10-11T02:19:38.356Z,46.00
2022-10-11T02:24:53.378Z,46.00
2022-10-11T02:30:08.400Z,46.40
2022-10-11T02:35:23.364Z,46.30
2022-10-11T02:40:38.654Z,46.00
2022-10-11T02:45:54.722Z,46.00
2022-10-11T02:51:10.339Z,45.90
2022-10-11T02:56:25.666Z,45.80
2022-10-11T03:01:41.754Z,45.70
2022-10-11T03:06:57.339Z,45.60
2022-10-11T03:12:12.114Z,45.60
2022-10-11T03:17:42.569Z,45.40
2022-10-11T03:22:57.362Z,45.30
2022-10-11T03:28:12.481Z,45.30
2022-10-11T03:33:28.673Z,45.30
2022-10-11T03:38:44.639Z,45.60
2022-10-11T03:44:00.709Z,45.50
2022-10-11T03:49:16.705Z,45.40
2022-10-11T03:54:32.364Z,45.40
2022-10-11T03:59:47.354Z,45.20
2022-10-11T04:05:02.363Z,44.50
2022-10-11T04:10:17.378Z,43.90
2022-10-11T04:15:32.401Z,43.10
2022-10-11T04:20:47.589Z,43.20
2022-10-11T04:26:03.793Z,43.20
2022-10-11T04:31:19.669Z,43.20
2022-10-11T04:36:35.361Z,43.00
2022-10-11T04:41:50.386Z,42.80
2022-10-11T04:47:05.365Z,42.60
2022-10-11T04:52:24.781Z,42.40
2022-10-11T04:57:40.639Z,42.20
2022-10-11T05:02:56.357Z,42.00
2022-10-11T05:08:11.384Z,42.10
2022-10-11T05:13:26.403Z,42.20
2022-10-11T05:18:41.619Z,42.00
2022-10-11T05:23:57.365Z,41.90
2022-10-11T05:29:12.367Z,42.00
2022-10-11T05:34:27.475Z,41.90
2022-10-11T05:39:42.409Z,41.80
2022-10-11T05:44:57.370Z,41.80
2022-10-11T05:50:12.670Z,41.60
2022-10-11T05:55:28.364Z,41.80
2022-10-11T06:00:43.400Z,41.80
2022-10-11T06:05:58.375Z,41.60
2022-10-11T06:11:13.704Z,41.70
2022-10-11T06:16:29.355Z,41.70
2022-10-11T06:21:44.381Z,41.70
2022-10-11T06:26:59.363Z,41.70
2022-10-11T06:32:14.713Z,41.80
2022-10-11T06:37:30.466Z,41.90
2022-10-11T06:42:45.616Z,42.00
2022-10-11T06:48:01.444Z,42.00
2022-10-11T06:53:16.376Z,42.10
2022-10-11T06:58:31.372Z,42.20
2022-10-11T07:03:46.691Z,42.30
2022-10-11T07:09:02.434Z,42.30
2022-10-11T07:14:17.375Z,42.40
2022-10-11T07:19:32.117Z,42.40
2022-10-11T07:24:47.347Z,42.60
2022-10-11T07:30:02.433Z,42.70
2022-10-11T07:35:17.710Z,42.70
2022-10-11T07:40:33.691Z,42.70
2022-10-11T07:45:49.386Z,43.00
2022-10-11T07:51:04.369Z,42.90
2022-10-11T07:56:19.804Z,43.20
2022-10-11T08:01:35.471Z,43.20
2022-10-11T08:06:53.422Z,43.40
2022-10-11T08:12:08.463Z,43.40
2022-10-11T08:17:23.381Z,43.50
2022-10-11T08:22:38.393Z,43.60
2022-10-11T08:27:53.148Z,43.70
2022-10-11T08:33:08.796Z,43.80
2022-10-11T08:38:24.703Z,43.80
2022-10-11T08:43:40.376Z,44.00
2022-10-11T08:48:55.367Z,44.10
2022-10-11T08:54:10.383Z,44.20
2022-10-11T09:00:02.373Z,44.30
2022-10-11T09:05:17.364Z,44.50
2022-10-11T09:10:32.362Z,44.80
2022-10-11T09:15:47.401Z,44.80
2022-10-11T09:21:02.393Z,44.90
2022-10-11T09:26:17.449Z,44.90
2022-10-11T09:31:32.159Z,45.10
2022-10-11T09:36:47.421Z,45.10
2022-10-11T09:42:02.404Z,45.10
2022-10-11T09:47:17.419Z,45.40
2022-10-11T09:52:32.724Z,45.60
2022-10-11T09:57:48.454Z,45.90
2022-10-11T10:03:03.667Z,45.90
2022-10-11T10:08:19.446Z,46.20
2022-10-11T10:13:34.384Z,46.40
2022-10-11T10:18:49.431Z,47.10
2022-10-11T10:24:04.339Z,46.30
2022-10-11T10:29:19.440Z,46.20
2022-10-11T10:34:34.754Z,46.30
2022-10-11T10:39:50.393Z,46.30
2022-10-11T10:45:08.494Z,46.30
2022-10-11T10:50:27.483Z,46.30
2022-10-11T10:55:42.363Z,45.70
2022-10-11T11:00:57.394Z,46.00
2022-10-11T11:06:12.193Z,45.30
2022-10-11T11:11:27.709Z,46.00
2022-10-11T11:16:43.446Z,46.30
2022-10-11T11:21:58.444Z,46.60
2022-10-11T11:27:13.450Z,46.70
2022-10-11T11:32:28.702Z,46.70
2022-10-11T11:37:44.749Z,46.50
2022-10-11T11:43:01.422Z,46.30
2022-10-11T11:48:16.444Z,46.00
2022-10-11T11:53:31.447Z,45.90
2022-10-11T11:58:46.404Z,45.40
2022-10-11T12:04:01.430Z,44.60
2022-10-11T12:09:16.456Z,43.40
2022-10-11T12:14:31.427Z,42.70
2022-10-11T12:19:46.403Z,42.80
2022-10-11T12:25:01.449Z,42.40
2022-10-11T12:30:16.407Z,42.10
2022-10-11T12:35:31.751Z,41.70
2022-10-11T12:40:47.418Z,41.80
2022-10-11T12:46:02.477Z,42.20
2022-10-11T12:51:17.388Z,42.20
2022-10-11T12:56:32.411Z,42.70
2022-10-11T13:01:47.333Z,42.60
2022-10-11T13:07:06.610Z,42.50
2022-10-11T13:12:22.376Z,42.60
2022-10-11T13:17:38.652Z,42.80
2022-10-11T13:22:54.794Z,42.90
2022-10-11T13:28:10.439Z,42.90
2022-10-11T13:33:26.411Z,42.80
2022-10-11T13:38:41.153Z,43.10
2022-10-11T13:41:25.509Z,34.50
2022-10-11T13:43:54.754Z,35.50
2022-10-11T13:43:56.416Z,42.40
2022-10-11T13:46:24.010Z,35.40
2022-10-11T13:48:53.345Z,35.20
2022-10-11T13:49:11.493Z,42.70
2022-10-11T13:54:26.728Z,42.70
2022-10-11T13:59:42.404Z,42.70
2022-10-11T14:04:57.440Z,42.60
2022-10-11T14:10:12.452Z,42.60
2022-10-11T14:15:27.399Z,43.00
2022-10-11T14:20:42.433Z,43.40
2022-10-11T14:25:57.465Z,43.50
2022-10-11T14:31:12.456Z,43.40
2022-10-11T14:36:27.688Z,43.40
2022-10-11T14:41:43.717Z,43.60
2022-10-11T14:46:59.465Z,43.60
2022-10-11T14:52:14.505Z,43.80
2022-10-11T14:57:29.915Z,43.80
2022-10-11T15:02:45.442Z,43.90
2022-10-11T15:08:00.886Z,44.00
2022-10-11T15:13:16.510Z,44.30
2022-10-11T15:18:31.415Z,44.60
2022-10-11T15:23:46.738Z,44.90
2022-10-11T15:29:02.418Z,44.90
2022-10-11T15:34:17.409Z,45.00
2022-10-11T15:39:32.174Z,45.10
2022-10-11T15:44:47.476Z,44.80
2022-10-11T15:50:02.442Z,45.10
2022-10-11T15:55:17.491Z,45.40
2022-10-11T16:00:32.403Z,45.60
2022-10-11T16:05:47.410Z,45.70
2022-10-11T16:11:02.409Z,45.60
2022-10-11T16:16:17.470Z,45.90
2022-10-11T16:21:32.718Z,45.70
2022-10-11T16:26:48.410Z,45.90
2022-10-11T16:32:03.408Z,46.40
2022-10-11T16:37:18.740Z,46.50
2022-10-11T16:42:34.427Z,46.60
2022-10-11T16:47:49.409Z,46.50
2022-10-11T16:53:04.449Z,46.50
2022-10-11T16:58:19.451Z,46.20
2022-10-11T17:03:34.411Z,46.20
2022-10-11T17:08:49.501Z,46.10
2022-10-11T17:14:04.427Z,46.20
2022-10-11T17:19:19.420Z,46.20
2022-10-11T17:24:34.424Z,46.10
2022-10-11T17:29:49.955Z,46.20
2022-10-11T17:35:05.453Z,46.20
2022-10-11T17:40:20.403Z,46.20
2022-10-11T17:45:35.727Z,46.20
2022-10-11T17:50:51.418Z,46.10
2022-10-11T17:56:06.442Z,46.20
2022-10-11T18:01:21.499Z,46.20
2022-10-11T18:06:36.739Z,46.40
2022-10-11T18:11:52.405Z,46.60
2022-10-11T18:17:07.407Z,46.50
2022-10-11T18:22:22.469Z,46.40
2022-10-11T18:27:37.446Z,46.30
2022-10-11T18:32:52.564Z,46.20
2022-10-11T18:38:07.779Z,46.20
2022-10-11T18:43:23.451Z,46.20
2022-10-11T18:48:38.466Z,46.20
2022-10-11T18:53:53.219Z,46.20
2022-10-11T18:59:08.865Z,46.30
2022-10-11T19:04:24.445Z,48.10
2022-10-11T19:09:39.274Z,50.10
2022-10-11T19:14:54.457Z,50.60
2022-10-11T19:20:09.514Z,50.60
2022-10-11T19:25:24.439Z,50.50
2022-10-11T19:30:39.433Z,50.40
2022-10-11T19:35:54.426Z,50.20
2022-10-11T19:41:09.404Z,50.10
2022-10-11T19:46:44.241Z,49.90
2022-10-11T19:51:59.447Z,49.70
2022-10-11T19:57:14.499Z,49.50
2022-10-11T20:02:29.754Z,49.50
2022-10-11T20:07:45.187Z,49.30
2022-10-11T20:13:00.463Z,49.10
2022-10-11T20:18:15.217Z,49.20
2022-10-11T20:23:30.939Z,49.20
2022-10-11T20:28:46.507Z,49.00
2022-10-11T20:34:01.421Z,48.60
2022-10-11T20:39:16.454Z,48.50
2022-10-11T20:44:31.454Z,48.40
2022-10-11T20:49:46.507Z,48.30
2022-10-11T20:55:01.485Z,48.20
2022-10-11T21:00:16.592Z,48.10
2022-10-11T21:05:31.458Z,48.10
2022-10-11T21:10:46.444Z,48.10
2022-10-11T21:16:01.432Z,48.10
2022-10-11T21:21:16.739Z,48.00
2022-10-11T21:26:32.486Z,48.10
2022-10-11T21:31:47.762Z,48.10
2022-10-11T21:37:03.469Z,48.10
2022-10-11T21:42:18.467Z,48.20
2022-10-11T21:47:38.039Z,48.00
2022-10-11T21:52:54.472Z,47.90
2022-10-11T21:58:09.428Z,47.80
2022-10-11T22:03:24.456Z,47.60
2022-10-11T22:08:39.435Z,47.60
2022-10-11T22:13:54.209Z,47.40
2022-10-11T22:19:09.730Z,47.50
2022-10-11T22:24:25.733Z,47.80
2022-10-11T22:29:41.493Z,47.50
2022-10-11T22:34:56.440Z,47.30
2022-10-11T22:40:11.822Z,47.30
2022-10-11T22:45:27.416Z,47.20
2022-10-11T22:50:42.412Z,47.20
2022-10-11T22:55:57.437Z,47.10
2022-10-11T23:01:12.743Z,47.30
2022-10-11T23:06:28.527Z,47.00
2022-10-11T23:11:43.404Z,47.40
2022-10-11T23:16:58.660Z,47.50
2022-10-11T23:22:14.491Z,47.40
2022-10-11T23:27:29.769Z,47.30
2022-10-11T23:32:45.441Z,47.20
2022-10-11T23:38:00.691Z,47.10
2022-10-11T23:43:16.429Z,47.20
2022-10-11T23:48:31.744Z,47.10
2022-10-11T23:53:47.861Z,46.90
2022-10-11T23:59:03.464Z,46.90
